Time;durP1;ratioP1;P1;durP2;ratioP2;P2;SDS_P1;SDS_P2;PMS_P1;PMS_P2;Temp;Humidity;BMP_temperature;BMP_pressure;BME280_temperature;BME280_humidity;BME280_pressure;Samples;Min_cycle;Max_cycle;Signal;HPM_P1;HPM_P2
2023/10/11 00:00:34;;;;;;;15.57;11.03;;;15.90;1.00;;;;;;5054984;28;20455;-69
2023/10/11 00:03:05;;;;;;;15.90;11.80;;;15.90;1.00;;;;;;5036971;28;20813;-69
2023/10/11 00:05:36;;;;;;;21.90;11.43;;;15.90;1.00;;;;;;5053149;28;20422;-69
2023/10/11 00:08:02;;;;;;;19.10;11.37;;;15.80;1.00;;;;;;5037180;28;20449;-68
2023/10/11 00:10:28;;;;;;;18.97;11.20;;;15.80;1.00;;;;;;5036991;28;20452;-69
2023/10/11 00:12:58;;;;;;;13.83;9.10;;;15.80;1.00;;;;;;5053598;28;20980;-69
2023/10/11 00:15:36;;;;;;;15.20;10.93;;;15.80;1.00;;;;;;5052893;28;20806;-69
2023/10/11 00:18:03;;;;;;;21.13;11.30;;;15.80;1.00;;;;;;5054398;28;20754;-69
2023/10/11 00:20:46;;;;;;;17.83;11.57;;;15.80;1.00;;;;;;5036764;28;20429;-69
2023/10/11 00:23:20;;;;;;;15.63;10.17;;;15.70;1.00;;;;;;5054399;28;20815;-69
2023/10/11 00:25:49;;;;;;;14.33;9.80;;;15.80;1.00;;;;;;5053563;28;20427;-69
2023/10/11 00:28:17;;;;;;;13.47;9.97;;;15.70;1.00;;;;;;5054263;28;20458;-69
2023/10/11 00:30:46;;;;;;;18.67;11.10;;;15.70;1.00;;;;;;5034955;28;20421;-69
2023/10/11 00:33:12;;;;;;;15.67;9.90;;;15.60;1.00;;;;;;5036701;28;20414;-70
2023/10/11 00:35:49;;;;;;;16.80;10.10;;;15.60;1.00;;;;;;5035497;28;20544;-69
2023/10/11 00:38:18;;;;;;;16.47;10.00;;;15.60;1.00;;;;;;5053127;28;20440;-69
2023/10/11 00:41:39;;;;;;;16.57;11.20;;;15.60;1.00;;;;;;5053946;28;20406;-69
2023/10/11 00:43:36;;;;;;;16.53;10.80;;;15.60;99.90;;;;;;5028647;28;20444;-69
2023/10/11 00:46:09;;;;;;;13.23;9.97;;;15.60;99.90;;;;;;5052740;28;20429;-69
2023/10/11 00:51:30;;;;;;;14.60;10.90;;;15.60;99.90;;;;;;5053818;28;20416;-69
2023/10/11 00:53:59;;;;;;;17.70;10.57;;;15.60;99.90;;;;;;5019346;28;20478;-73
2023/10/11 00:56:31;;;;;;;14.20;10.63;;;15.60;99.90;;;;;;5034859;28;20471;-69
2023/10/11 00:59:08;;;;;;;16.43;9.73;;;15.60;99.90;;;;;;5036797;28;20940;-69
2023/10/11 01:01:55;;;;;;;14.70;11.20;;;15.60;99.90;;;;;;5051321;28;20429;-70
2023/10/11 01:04:22;;;;;;;15.63;10.80;;;15.60;99.90;;;;;;5053041;28;20413;-70
2023/10/11 01:06:49;;;;;;;15.00;9.70;;;15.50;99.90;;;;;;5034687;28;20440;-69
2023/10/11 01:09:21;;;;;;;15.00;10.23;;;15.50;99.90;;;;;;5053658;28;20413;-70
2023/10/11 01:11:47;;;;;;;14.67;10.00;;;15.50;99.90;;;;;;5053645;28;20416;-68
2023/10/11 01:14:14;;;;;;;15.97;11.10;;;15.50;99.90;;;;;;5052945;28;20430;-69
2023/10/11 01:16:41;;;;;;;18.50;12.60;;;15.50;99.90;;;;;;5001589;28;20469;-69
2023/10/11 01:19:16;;;;;;;18.67;10.93;;;15.50;99.90;;;;;;5035235;28;20495;-69
2023/10/11 01:21:46;;;;;;;16.80;10.10;;;15.50;99.90;;;;;;5021841;28;20543;-69
2023/10/11 01:24:16;;;;;;;23.77;11.50;;;15.40;99.90;;;;;;5020071;28;20492;-70
2023/10/11 01:26:42;;;;;;;14.57;10.00;;;15.40;99.90;;;;;;5034066;28;20440;-68
2023/10/11 01:29:10;;;;;;;13.70;9.40;;;15.40;99.90;;;;;;5019213;28;20516;-69
2023/10/11 01:31:40;;;;;;;15.77;9.63;;;15.50;99.90;;;;;;5035319;28;20413;-69
2023/10/11 01:34:05;;;;;;;17.60;10.30;;;15.50;99.90;;;;;;5018876;28;20425;-69
2023/10/11 01:36:34;;;;;;;11.00;8.90;;;15.50;99.90;;;;;;5034315;28;20457;-71
2023/10/11 01:39:06;;;;;;;13.30;9.37;;;15.40;99.90;;;;;;5035405;28;20638;-69
2023/10/11 01:41:32;;;;;;;17.27;9.60;;;15.40;99.90;;;;;;5036083;28;20412;-69
2023/10/11 01:43:59;;;;;;;18.53;11.33;;;15.40;99.90;;;;;;5035133;28;20516;-69
2023/10/11 01:46:35;;;;;;;10.90;9.80;;;15.40;99.90;;;;;;5051148;28;20202;-69
2023/10/11 01:49:05;;;;;;;14.50;9.90;;;15.40;99.90;;;;;;5052817;28;20502;-69
2023/10/11 01:51:38;;;;;;;11.60;8.73;;;15.40;99.90;;;;;;5035330;28;20417;-69
2023/10/11 01:54:04;;;;;;;14.80;9.10;;;15.40;99.90;;;;;;5051700;28;20409;-69
2023/10/11 01:56:30;;;;;;;13.03;9.90;;;15.50;99.90;;;;;;5051725;28;20461;-69
2023/10/11 01:59:00;;;;;;;19.53;10.17;;;15.40;99.90;;;;;;5034345;28;20483;-69
2023/10/11 02:01:30;;;;;;;12.13;10.07;;;15.40;99.90;;;;;;5019932;28;20252;-69
2023/10/11 02:04:00;;;;;;;18.00;9.40;;;15.40;99.90;;;;;;5018853;28;20801;-69
2023/10/11 02:06:34;;;;;;;12.73;9.40;;;15.40;99.90;;;;;;5034316;28;20425;-68
2023/10/11 02:09:00;;;;;;;16.30;9.43;;;15.40;99.90;;;;;;5052588;28;20406;-69
2023/10/11 02:11:29;;;;;;;10.90;9.10;;;15.40;99.90;;;;;;5035203;28;20838;-68
2023/10/11 02:13:57;;;;;;;14.40;9.67;;;15.30;99.90;;;;;;5052697;28;20409;-73
2023/10/11 02:16:23;;;;;;;14.07;10.33;;;15.30;99.90;;;;;;5032360;28;20443;-71
2023/10/11 02:18:58;;;;;;;12.30;8.37;;;15.30;99.90;;;;;;5034649;28;20417;-69
2023/10/11 02:21:25;;;;;;;14.53;9.93;;;15.30;99.90;;;;;;5051765;28;20889;-70
2023/10/11 02:23:51;;;;;;;12.60;9.50;;;15.30;99.90;;;;;;5018263;28;20421;-71
2023/10/11 02:26:16;;;;;;;15.33;10.13;;;15.20;99.90;;;;;;5033893;28;20444;-69
2023/10/11 02:28:44;;;;;;;14.93;9.97;;;15.10;99.90;;;;;;5051983;28;20503;-69
2023/10/11 02:31:14;;;;;;;15.57;9.53;;;15.20;99.90;;;;;;5038601;28;20434;-69
2023/10/11 02:33:42;;;;;;;14.67;9.80;;;15.10;99.90;;;;;;5039020;28;20912;-69
2023/10/11 02:36:09;;;;;;;18.53;9.70;;;15.00;99.90;;;;;;5037655;28;20447;-69
2023/10/11 02:38:47;;;;;;;16.97;10.33;;;15.00;99.90;;;;;;5038584;28;20491;-71
2023/10/11 02:41:20;;;;;;;18.47;11.07;;;15.00;99.90;;;;;;5055276;28;20408;-69
2023/10/11 02:43:49;;;;;;;11.73;10.00;;;15.00;99.90;;;;;;5022904;28;20425;-68
2023/10/11 02:46:24;;;;;;;15.53;10.00;;;15.00;99.90;;;;;;5055119;28;20425;-69
2023/10/11 02:49:04;;;;;;;13.70;9.90;;;15.00;99.90;;;;;;5038776;28;20437;-70
2023/10/11 02:51:35;;;;;;;14.90;10.17;;;15.00;99.90;;;;;;5023452;28;20923;-69
2023/10/11 02:54:04;;;;;;;13.47;9.70;;;15.00;99.90;;;;;;5056085;28;20479;-68
2023/10/11 02:56:47;;;;;;;16.80;10.70;;;14.90;99.90;;;;;;5055135;28;20484;-69
2023/10/11 02:59:20;;;;;;;20.20;10.70;;;14.90;1.00;;;;;;5025235;28;20409;-73
2023/10/11 03:02:04;;;;;;;18.93;9.73;;;14.90;1.00;;;;;;5055976;28;20428;-68
2023/10/11 03:04:41;;;;;;;13.33;10.77;;;14.80;1.00;;;;;;5040478;28;20413;-70
2023/10/11 03:07:23;;;;;;;14.47;10.80;;;14.80;1.00;;;;;;5037744;28;20840;-69
2023/10/11 03:09:50;;;;;;;17.13;10.30;;;14.90;1.00;;;;;;5040263;28;20840;-69
2023/10/11 03:12:19;;;;;;;15.67;10.13;;;14.90;1.00;;;;;;5037818;28;20421;-69
2023/10/11 03:14:47;;;;;;;13.53;10.53;;;14.90;1.00;;;;;;5054640;28;20413;-69
2023/10/11 03:17:13;;;;;;;18.43;10.80;;;14.90;1.00;;;;;;5036894;28;20472;-72
2023/10/11 03:19:43;;;;;;;12.30;9.90;;;14.80;1.00;;;;;;5004895;28;20420;-69
2023/10/11 03:22:19;;;;;;;20.50;11.40;;;14.90;1.00;;;;;;5021165;28;20445;-69
2023/10/11 03:24:54;;;;;;;13.37;10.20;;;14.90;1.00;;;;;;5054814;28;20460;-69
2023/10/11 03:27:23;;;;;;;16.83;10.00;;;14.90;1.00;;;;;;5035677;28;20447;-69
2023/10/11 03:29:52;;;;;;;19.20;10.80;;;14.90;1.00;;;;;;5038249;28;20428;-69
2023/10/11 03:32:24;;;;;;;13.40;10.07;;;14.90;1.00;;;;;;5022049;28;20416;-69
2023/10/11 03:34:51;;;;;;;19.07;10.10;;;14.90;1.00;;;;;;5036681;28;20376;-69
2023/10/11 03:37:19;;;;;;;14.60;10.00;;;14.90;1.00;;;;;;5020939;28;20567;-70
2023/10/11 03:39:55;;;;;;;13.77;11.00;;;14.90;1.00;;;;;;5028807;28;20426;-69
2023/10/11 03:42:50;;;;;;;13.90;10.63;;;14.80;1.00;;;;;;5023316;28;20414;-69
2023/10/11 03:45:10;;;;;;;17.73;10.80;;;14.80;1.00;;;;;;5025455;28;20429;-70
2023/10/11 03:47:38;;;;;;;16.63;9.70;;;14.80;1.00;;;;;;5037430;28;20929;-68
2023/10/11 03:50:06;;;;;;;13.10;9.87;;;14.70;1.00;;;;;;5037320;28;20435;-69
2023/10/11 03:52:33;;;;;;;17.23;12.00;;;14.80;1.00;;;;;;5036410;28;20414;-71
2023/10/11 03:55:09;;;;;;;17.13;12.27;;;14.80;1.00;;;;;;5035583;28;20396;-69
2023/10/11 03:57:42;;;;;;;17.23;10.80;;;14.80;1.00;;;;;;5038436;28;20523;-70
2023/10/11 04:03:08;;;;;;;21.33;10.90;;;14.80;1.00;;;;;;5038383;28;20425;-69
2023/10/11 04:05:36;;;;;;;17.43;10.43;;;14.80;1.00;;;;;;5038781;28;20405;-69
2023/10/11 04:08:10;;;;;;;12.40;10.00;;;14.80;1.00;;;;;;5054569;28;20425;-68
2023/10/11 04:10:43;;;;;;;18.93;12.50;;;14.80;1.00;;;;;;5021802;28;20928;-69
2023/10/11 04:13:15;;;;;;;17.83;11.33;;;14.80;1.00;;;;;;5036827;28;20413;-68
2023/10/11 04:15:41;;;;;;;18.67;11.77;;;14.90;1.00;;;;;;5035685;28;20428;-69
2023/10/11 04:18:43;;;;;;;22.00;11.47;;;14.90;1.00;;;;;;5054365;28;20401;-69
2023/10/11 04:21:17;;;;;;;20.23;12.60;;;14.90;1.00;;;;;;5051364;28;20824;-68
2023/10/11 04:23:45;;;;;;;16.30;11.67;;;14.90;1.00;;;;;;5039043;28;20388;-71
2023/10/11 04:26:53;;;;;;;17.73;10.83;;;15.00;1.00;;;;;;5053431;28;20504;-69
2023/10/11 04:29:15;;;;;;;15.93;11.97;;;15.00;1.00;;;;;;5049788;28;20749;-69
2023/10/11 04:31:55;;;;;;;22.10;12.00;;;15.00;1.00;;;;;;5021164;28;20444;-69
2023/10/11 04:34:32;;;;;;;19.20;13.93;;;15.00;1.00;;;;;;5038726;28;20894;-69
2023/10/11 04:37:28;;;;;;;19.10;11.70;;;15.10;1.00;;;;;;5038006;28;20488;-69
2023/10/11 04:40:15;;;;;;;20.80;12.00;;;15.10;1.00;;;;;;5053997;28;20813;-70
2023/10/11 04:42:43;;;;;;;23.23;11.90;;;15.10;1.00;;;;;;5054002;28;20413;-69
2023/10/11 04:45:21;;;;;;;17.70;12.10;;;15.00;1.00;;;;;;5035939;28;20922;-71
2023/10/11 04:47:56;;;;;;;21.57;12.63;;;15.00;1.00;;;;;;5020361;28;20428;-69
2023/10/11 04:50:25;;;;;;;27.20;13.17;;;15.10;1.00;;;;;;5037702;28;20932;-68
2023/10/11 04:52:56;;;;;;;20.77;12.30;;;15.10;1.00;;;;;;5035992;28;20413;-67
2023/10/11 04:55:34;;;;;;;22.43;11.87;;;15.10;1.00;;;;;;5052762;28;20445;-68
2023/10/11 04:58:08;;;;;;;21.53;14.13;;;15.10;1.00;;;;;;5053527;28;20401;-67
2023/10/11 05:00:44;;;;;;;14.80;11.00;;;15.20;1.00;;;;;;5036893;28;20433;-67
2023/10/11 05:03:10;;;;;;;22.80;13.23;;;15.20;1.00;;;;;;5052990;28;20412;-69
2023/10/11 05:05:41;;;;;;;17.50;12.60;;;15.30;1.00;;;;;;5018475;28;20496;-68
2023/10/11 05:08:20;;;;;;;21.53;11.80;;;15.30;1.00;;;;;;5053327;28;20432;-68
2023/10/11 05:10:51;;;;;;;20.20;12.90;;;15.30;1.00;;;;;;5023362;28;20420;-69
2023/10/11 05:13:29;;;;;;;21.07;12.67;;;15.30;1.00;;;;;;5036466;28;20768;-70
2023/10/11 05:16:01;;;;;;;22.03;12.20;;;15.40;1.00;;;;;;5021421;28;20472;-71
2023/10/11 05:18:27;;;;;;;24.67;14.33;;;15.40;1.00;;;;;;5053357;28;20402;-68
2023/10/11 05:20:57;;;;;;;26.70;13.13;;;15.40;1.00;;;;;;5035471;28;20415;-68
2023/10/11 05:23:33;;;;;;;31.03;13.07;;;15.50;1.00;;;;;;5035753;28;20174;-68
2023/10/11 05:25:59;;;;;;;22.67;13.60;;;15.50;1.00;;;;;;5035757;28;20436;-69
2023/10/11 05:28:38;;;;;;;20.60;11.67;;;15.50;1.00;;;;;;5035592;28;20781;-69
2023/10/11 05:50:50;;;;;;;27.20;13.13;;;15.50;1.00;;;;;;5015619;28;20472;-70
2023/10/11 05:50:52;;;;;;;26.33;14.63;;;15.70;1.00;;;;;;5037969;28;20470;-70
2023/10/11 05:53:18;;;;;;;17.53;12.30;;;15.80;1.00;;;;;;5052944;28;20471;-69
2023/10/11 05:55:44;;;;;;;23.50;12.40;;;15.80;1.00;;;;;;5033971;28;20472;-69
2023/10/11 05:58:13;;;;;;;26.60;13.80;;;15.80;1.00;;;;;;5052705;28;20171;-68
2023/10/11 06:00:40;;;;;;;24.57;12.63;;;15.90;1.00;;;;;;5018837;28;20179;-69
2023/10/11 06:03:06;;;;;;;23.23;13.30;;;15.90;1.00;;;;;;5035555;28;20447;-69
2023/10/11 06:05:39;;;;;;;30.50;14.47;;;15.90;1.00;;;;;;5040655;28;20468;-68
2023/10/11 06:08:15;;;;;;;37.00;13.93;;;16.00;1.00;;;;;;5041241;28;20429;-68
2023/10/11 06:10:42;;;;;;;29.57;15.50;;;16.00;1.00;;;;;;5042936;28;20417;-68
2023/10/11 06:13:15;;;;;;;24.17;13.80;;;16.00;1.00;;;;;;5059437;28;20896;-68
2023/10/11 06:15:50;;;;;;;28.00;14.27;;;16.00;1.00;;;;;;5041573;28;20821;-68
2023/10/11 06:21:05;;;;;;;26.07;14.60;;;16.10;1.00;;;;;;5043708;28;20404;-68
2023/10/11 06:23:33;;;;;;;28.13;15.20;;;16.00;1.00;;;;;;5042466;28;20405;-68
2023/10/11 06:26:28;;;;;;;21.87;12.73;;;16.10;1.00;;;;;;5040734;28;20429;-69
2023/10/11 06:28:48;;;;;;;25.73;13.50;;;16.10;1.00;;;;;;5044242;28;20503;-69
2023/10/11 06:31:14;;;;;;;25.27;14.00;;;16.10;1.00;;;;;;5038899;28;20763;-69
2023/10/11 06:33:44;;;;;;;25.97;14.13;;;16.20;1.00;;;;;;5040792;28;20914;-69
2023/10/11 06:36:14;;;;;;;28.67;14.40;;;16.20;1.00;;;;;;5024367;28;20469;-69
2023/10/11 06:38:41;;;;;;;24.17;13.97;;;16.20;1.00;;;;;;5058122;28;20440;-69
2023/10/11 06:43:51;;;;;;;31.90;14.73;;;16.20;1.00;;;;;;5059304;28;20462;-71
2023/10/11 06:46:17;;;;;;;21.07;13.73;;;16.30;1.00;;;;;;5040644;28;20855;-69
2023/10/11 06:48:44;;;;;;;20.50;12.63;;;16.30;1.00;;;;;;5041179;28;20449;-69
2023/10/11 06:51:13;;;;;;;29.10;14.20;;;16.30;1.00;;;;;;5041229;28;20412;-69
2023/10/11 06:53:42;;;;;;;28.67;14.83;;;16.40;1.00;;;;;;5040979;28;20417;-68
2023/10/11 06:56:16;;;;;;;25.20;14.50;;;16.40;1.00;;;;;;5040087;28;20465;-68
2023/10/11 06:58:44;;;;;;;24.20;14.40;;;16.40;1.00;;;;;;5058938;28;20391;-68
2023/10/11 07:01:13;;;;;;;21.47;13.77;;;16.40;1.00;;;;;;5025082;28;20904;-72
2023/10/11 07:03:40;;;;;;;23.60;14.30;;;16.40;1.00;;;;;;5041525;28;20418;-69
2023/10/11 07:06:12;;;;;;;24.30;14.17;;;16.30;1.00;;;;;;5040325;28;20440;-69
2023/10/11 07:08:53;;;;;;;21.33;12.97;;;16.30;1.00;;;;;;5042210;28;20417;-69
2023/10/11 07:11:50;;;;;;;25.40;12.90;;;16.40;1.00;;;;;;5042987;28;20413;-69
2023/10/11 07:14:16;;;;;;;26.60;15.23;;;16.40;1.00;;;;;;5027269;28;20421;-69
2023/10/11 07:16:42;;;;;;;29.10;14.10;;;16.40;1.00;;;;;;5054523;28;20460;-69
2023/10/11 07:19:11;;;;;;;20.43;11.80;;;16.40;1.00;;;;;;5055505;28;20424;-68
2023/10/11 07:21:53;;;;;;;25.13;14.03;;;16.50;1.00;;;;;;5055699;28;20401;-69
2023/10/11 07:24:33;;;;;;;21.10;15.27;;;16.50;1.00;;;;;;5040487;28;20412;-68
2023/10/11 07:27:08;;;;;;;26.20;12.53;;;16.50;1.00;;;;;;5040782;28;20479;-69
2023/10/11 07:29:42;;;;;;;32.53;13.83;;;16.60;1.00;;;;;;5021148;28;20425;-68
2023/10/11 07:32:11;;;;;;;22.57;13.67;;;16.60;1.00;;;;;;5037246;28;20642;-68
2023/10/11 07:34:39;;;;;;;23.20;13.77;;;16.60;1.00;;;;;;5037142;28;20405;-70
2023/10/11 07:37:06;;;;;;;14.17;11.87;;;16.60;1.00;;;;;;5036950;28;20468;-69
2023/10/11 07:39:35;;;;;;;28.67;12.93;;;16.60;1.00;;;;;;5055284;28;20412;-69
2023/10/11 07:44:36;;;;;;;20.27;11.57;;;16.70;1.00;;;;;;5037297;28;20743;-73
2023/10/11 07:47:08;;;;;;;19.97;11.33;;;16.70;1.00;;;;;;5021573;28;20456;-68
2023/10/11 07:49:39;;;;;;;20.00;11.73;;;16.70;1.00;;;;;;5037049;28;20487;-69
2023/10/11 07:52:08;;;;;;;27.60;12.57;;;16.80;1.00;;;;;;5054847;28;20946;-68
2023/10/11 07:54:36;;;;;;;18.90;11.00;;;16.80;1.00;;;;;;5053462;28;20425;-69
2023/10/11 07:57:04;;;;;;;19.60;12.20;;;16.80;1.00;;;;;;5054796;28;20961;-68
2023/10/11 07:59:31;;;;;;;17.80;11.23;;;16.80;1.00;;;;;;5037403;28;20447;-69
2023/10/11 08:01:59;;;;;;;21.10;11.77;;;16.80;1.00;;;;;;5020975;28;20449;-69
2023/10/11 08:04:29;;;;;;;21.27;10.80;;;16.80;1.00;;;;;;5037413;28;20406;-68
2023/10/11 08:06:59;;;;;;;15.00;10.77;;;16.90;1.00;;;;;;5037186;28;20430;-69
2023/10/11 08:09:45;;;;;;;23.40;12.20;;;16.90;1.00;;;;;;5037254;28;20420;-73
2023/10/11 08:12:13;;;;;;;19.93;13.33;;;17.00;1.00;;;;;;5036874;28;20432;-69
2023/10/11 08:14:44;;;;;;;23.53;11.07;;;17.00;1.00;;;;;;5035724;28;20412;-69
2023/10/11 08:17:15;;;;;;;26.10;12.00;;;17.00;1.00;;;;;;5020648;28;20572;-69
2023/10/11 08:19:44;;;;;;;19.97;10.40;;;17.00;1.00;;;;;;5054565;28;20441;-69
2023/10/11 08:22:16;;;;;;;17.87;10.60;;;17.00;1.00;;;;;;5036931;28;20389;-68
2023/10/11 08:24:49;;;;;;;28.23;11.10;;;17.00;1.00;;;;;;5054057;28;20894;-68
2023/10/11 08:27:28;;;;;;;20.77;11.20;;;17.10;1.00;;;;;;5053804;28;20516;-69
2023/10/11 08:32:37;;;;;;;13.40;9.37;;;17.20;1.00;;;;;;5037321;28;20405;-69
2023/10/11 08:35:06;;;;;;;19.20;10.17;;;17.20;1.00;;;;;;5035906;28;20421;-68
2023/10/11 08:37:33;;;;;;;25.83;12.10;;;17.20;1.00;;;;;;5020232;28;20548;-68
2023/10/11 08:40:01;;;;;;;25.30;10.67;;;17.20;1.00;;;;;;5053974;28;20889;-69
2023/10/11 08:42:30;;;;;;;24.20;10.77;;;17.30;1.00;;;;;;5036639;28;20405;-68
2023/10/11 08:45:00;;;;;;;22.40;9.70;;;17.30;1.00;;;;;;5053436;28;20398;-68
2023/10/11 08:47:29;;;;;;;19.40;10.33;;;17.20;1.00;;;;;;5053951;28;20436;-68
2023/10/11 08:49:55;;;;;;;20.47;9.73;;;17.10;1.00;;;;;;5036147;28;20429;-75
2023/10/11 08:52:30;;;;;;;23.00;10.10;;;17.20;1.00;;;;;;5053289;28;20409;-69
2023/10/11 08:54:59;;;;;;;14.47;8.67;;;17.20;1.00;;;;;;5053225;28;20482;-68
2023/10/11 08:57:26;;;;;;;28.13;9.60;;;17.20;1.00;;;;;;5053766;28;20460;-68
2023/10/11 09:00:03;;;;;;;20.17;9.20;;;17.20;1.00;;;;;;5036306;28;20446;-72
2023/10/11 09:02:33;;;;;;;16.13;10.03;;;17.20;1.00;;;;;;5053811;28;20885;-68
2023/10/11 09:05:07;;;;;;;14.10;10.23;;;17.30;1.00;;;;;;5035722;28;20426;-69
2023/10/11 09:07:48;;;;;;;16.03;10.33;;;17.30;1.00;;;;;;5003866;28;20441;-68
2023/10/11 09:10:29;;;;;;;16.70;10.03;;;17.30;1.00;;;;;;5052999;28;20421;-69
2023/10/11 09:13:00;;;;;;;20.90;10.63;;;17.30;1.00;;;;;;5053511;28;20453;-68
2023/10/11 09:15:44;;;;;;;11.40;8.87;;;17.30;1.00;;;;;;5052679;28;20443;-69
2023/10/11 09:18:18;;;;;;;19.97;9.97;;;17.30;1.00;;;;;;5053308;28;20467;-69
2023/10/11 09:20:51;;;;;;;24.77;10.43;;;17.20;1.00;;;;;;5053589;28;20462;-69
2023/10/11 09:23:21;;;;;;;21.60;10.13;;;17.20;1.00;;;;;;5019404;28;20910;-69
2023/10/11 09:25:59;;;;;;;15.37;9.23;;;17.20;1.00;;;;;;5019710;28;20433;-68
2023/10/11 09:28:33;;;;;;;16.40;10.07;;;17.20;1.00;;;;;;5020747;28;20424;-70
2023/10/11 09:31:14;;;;;;;18.30;9.70;;;17.20;1.00;;;;;;5035521;28;20409;-68
2023/10/11 09:33:59;;;;;;;21.43;9.43;;;17.20;1.00;;;;;;5037375;28;20460;-69
2023/10/11 09:36:28;;;;;;;13.83;9.63;;;17.20;1.00;;;;;;5052422;28;20526;-69
2023/10/11 09:38:56;;;;;;;19.33;10.60;;;17.20;1.00;;;;;;5052270;28;20892;-69
2023/10/11 09:41:28;;;;;;;22.80;10.90;;;17.20;1.00;;;;;;5035287;28;20825;-69
2023/10/11 09:43:59;;;;;;;14.27;8.93;;;17.20;1.00;;;;;;5035700;28;20417;-69
2023/10/11 09:46:33;;;;;;;23.57;9.17;;;17.20;1.00;;;;;;5035055;28;20447;-69
2023/10/11 09:49:13;;;;;;;13.37;9.67;;;17.20;1.00;;;;;;5035332;28;20946;-71
2023/10/11 09:51:43;;;;;;;15.83;9.87;;;17.20;1.00;;;;;;5020511;28;20512;-68
2023/10/11 09:54:14;;;;;;;18.60;9.70;;;17.20;1.00;;;;;;5035736;28;20413;-68
2023/10/11 09:57:08;;;;;;;19.27;9.80;;;17.20;1.00;;;;;;5051993;28;20461;-68
2023/10/11 10:00:12;;;;;;;14.93;10.57;;;17.20;1.00;;;;;;5051996;28;20445;-68
2023/10/11 10:02:44;;;;;;;18.00;9.90;;;17.20;1.00;;;;;;5035195;28;20413;-68
2023/10/11 10:05:11;;;;;;;11.30;9.20;;;17.10;1.00;;;;;;5034714;28;20421;-68
2023/10/11 10:07:44;;;;;;;17.77;10.03;;;17.10;1.00;;;;;;5033314;28;20959;-69
2023/10/11 10:10:26;;;;;;;22.07;11.50;;;17.10;1.00;;;;;;5035624;28;20406;-68
2023/10/11 10:12:56;;;;;;;22.00;10.87;;;17.00;1.00;;;;;;5052759;28;20922;-68
2023/10/11 10:15:23;;;;;;;16.60;10.93;;;17.00;1.00;;;;;;5052096;28;20436;-68
2023/10/11 10:18:01;;;;;;;16.77;11.10;;;17.00;1.00;;;;;;5026951;28;20412;-68
2023/10/11 10:20:41;;;;;;;14.80;10.70;;;17.00;1.00;;;;;;5034895;28;20447;-71
2023/10/11 10:23:21;;;;;;;17.07;10.23;;;17.10;1.00;;;;;;5052986;28;20507;-67
2023/10/11 10:25:50;;;;;;;10.80;9.70;;;17.10;1.00;;;;;;5051418;28;20435;-68
2023/10/11 10:28:39;;;;;;;23.00;9.90;;;17.10;1.00;;;;;;5034841;28;20597;-68
2023/10/11 10:31:22;;;;;;;18.60;10.10;;;17.20;1.00;;;;;;5034799;28;20928;-69
2023/10/11 10:34:13;;;;;;;17.00;9.80;;;17.20;1.00;;;;;;5052571;28;20409;-68
2023/10/11 10:36:40;;;;;;;17.13;8.80;;;17.30;1.00;;;;;;5051685;28;20881;-70
2023/10/11 10:41:40;;;;;;;15.70;10.07;;;17.30;1.00;;;;;;5051447;28;20404;-69
2023/10/11 10:44:19;;;;;;;15.33;10.10;;;17.30;1.00;;;;;;5018468;28;21078;-69
2023/10/11 10:46:52;;;;;;;19.60;10.17;;;17.30;1.00;;;;;;5034350;28;20439;-69
2023/10/11 11:06:49;;;;;;;19.00;9.50;;;17.00;1.00;;;;;;5069337;28;20903;-66
2023/10/11 11:09:25;;;;;;;16.20;10.30;;;17.10;1.00;;;;;;5070278;28;20780;-67
2023/10/11 11:12:04;;;;;;;13.40;9.50;;;17.10;1.00;;;;;;5070476;28;20395;-68
2023/10/11 11:14:30;;;;;;;13.10;9.40;;;17.20;1.00;;;;;;5070005;28;20388;-73
2023/10/11 11:17:00;;;;;;;14.97;8.73;;;17.30;1.00;;;;;;5068991;28;20429;-67
2023/10/11 11:19:26;;;;;;;19.37;9.30;;;17.30;1.00;;;;;;5070164;28;20385;-67
2023/10/11 11:22:12;;;;;;;13.77;7.83;;;17.30;1.00;;;;;;5070409;28;20749;-68
2023/10/11 11:24:41;;;;;;;13.50;9.33;;;17.30;1.00;;;;;;5069335;28;20470;-67
2023/10/11 11:27:25;;;;;;;17.03;7.67;;;17.40;1.00;;;;;;5070274;28;20500;-66
2023/10/11 11:30:02;;;;;;;14.03;8.10;;;17.40;1.00;;;;;;5070021;28;20409;-67
2023/10/11 11:32:38;;;;;;;19.40;7.53;;;17.40;1.00;;;;;;5069993;28;20769;-67
2023/10/11 11:35:09;;;;;;;12.77;7.70;;;17.60;1.00;;;;;;5068677;28;20428;-68
2023/10/11 11:37:39;;;;;;;13.60;6.90;;;17.70;1.00;;;;;;5067835;28;20951;-67
2023/10/11 11:40:23;;;;;;;11.83;7.80;;;17.80;1.00;;;;;;5070350;28;20415;-65
2023/10/11 11:42:49;;;;;;;18.60;7.83;;;17.90;1.00;;;;;;5070088;28;20419;-66
2023/10/11 11:45:16;;;;;;;12.13;7.47;;;17.90;1.00;;;;;;5069325;28;20535;-66
2023/10/11 11:47:55;;;;;;;15.30;7.27;;;17.90;1.00;;;;;;5068709;28;20214;-65
2023/10/11 11:50:25;;;;;;;12.63;7.50;;;17.90;1.00;;;;;;5069844;28;20411;-66
2023/10/11 11:52:51;;;;;;;11.93;7.50;;;17.80;1.00;;;;;;5070047;28;20405;-67
2023/10/11 11:55:22;;;;;;;11.00;7.13;;;17.80;1.00;;;;;;5067147;28;20943;-66
2023/10/11 11:57:48;;;;;;;18.53;7.70;;;17.70;1.00;;;;;;5069760;28;20408;-66
2023/10/11 12:02:58;;;;;;;11.07;6.70;;;17.70;1.00;;;;;;5069672;28;20245;-65
2023/10/11 12:05:27;;;;;;;14.53;7.63;;;17.70;1.00;;;;;;5068530;28;20862;-67
2023/10/11 12:07:57;;;;;;;13.93;7.90;;;17.90;1.00;;;;;;5069527;28;20400;-67
2023/10/11 12:10:24;;;;;;;12.27;6.40;;;18.00;1.00;;;;;;5068948;28;20401;-66
2023/10/11 12:12:55;;;;;;;10.70;7.90;;;18.10;1.00;;;;;;5068115;28;20408;-66
2023/10/11 12:15:21;;;;;;;15.50;6.10;;;18.00;1.00;;;;;;5068603;28;20405;-67
2023/10/11 12:17:47;;;;;;;11.23;6.30;;;18.10;1.00;;;;;;5056226;28;20436;-67
2023/10/11 12:20:15;;;;;;;16.33;6.47;;;18.10;1.00;;;;;;5055956;28;20410;-66
2023/10/11 12:22:44;;;;;;;12.93;6.40;;;18.10;1.00;;;;;;5054781;28;20950;-65
2023/10/11 12:25:13;;;;;;;10.80;6.03;;;18.30;1.00;;;;;;5055217;28;20491;-65
2023/10/11 12:27:42;;;;;;;10.10;6.10;;;18.40;1.00;;;;;;5054983;28;20417;-68
2023/10/11 12:30:22;;;;;;;11.03;5.43;;;18.50;1.00;;;;;;5056308;28;20452;-65
2023/10/11 12:32:52;;;;;;;17.93;6.63;;;18.60;1.00;;;;;;5055913;28;20409;-65
2023/10/11 12:35:23;;;;;;;10.23;4.67;;;18.60;99.90;;;;;;5055121;28;20402;-65
2023/10/11 12:37:49;;;;;;;9.93;6.60;;;18.50;99.90;;;;;;5055795;28;20430;-67
2023/10/11 12:40:24;;;;;;;7.17;4.23;;;18.40;99.90;;;;;;5055706;28;20401;-65
2023/10/11 12:42:50;;;;;;;7.90;4.93;;;18.50;99.90;;;;;;5055888;28;20738;-66
2023/10/11 12:45:19;;;;;;;8.37;5.80;;;18.50;99.90;;;;;;5054323;28;20465;-65
2023/10/11 12:47:45;;;;;;;10.53;4.87;;;18.50;99.90;;;;;;5055423;28;20456;-67
2023/10/11 12:50:13;;;;;;;6.27;4.97;;;18.40;99.90;;;;;;5055722;28;20429;-66
2023/10/11 12:52:40;;;;;;;7.63;4.50;;;18.40;99.90;;;;;;5055646;28;20402;-66
2023/10/11 12:55:06;;;;;;;5.20;4.63;;;18.30;99.90;;;;;;5053557;28;20429;-64
2023/10/11 12:57:37;;;;;;;8.37;4.93;;;18.30;99.90;;;;;;5055371;28;20425;-66
2023/10/11 13:00:28;;;;;;;11.30;4.50;;;18.30;99.90;;;;;;5055265;28;20463;-66
2023/10/11 13:02:58;;;;;;;5.73;4.23;;;18.30;99.90;;;;;;5054626;28;20963;-65
2023/10/11 13:05:26;;;;;;;8.83;5.77;;;18.30;99.90;;;;;;5054487;28;20489;-65
2023/10/11 13:07:54;;;;;;;6.63;4.70;;;18.20;99.90;;;;;;5055370;28;20417;-66
2023/10/11 13:10:22;;;;;;;6.07;4.70;;;18.10;99.90;;;;;;5055077;28;20406;-66
2023/10/11 13:12:50;;;;;;;8.23;5.50;;;18.10;99.90;;;;;;5055171;28;20410;-65
2023/10/11 13:15:18;;;;;;;8.10;5.93;;;18.00;99.90;;;;;;5054487;28;20397;-66
2023/10/11 13:17:46;;;;;;;9.97;4.67;;;18.10;99.90;;;;;;5054512;28;20891;-66
2023/10/11 13:20:18;;;;;;;7.87;5.40;;;18.10;99.90;;;;;;5054453;28;20912;-65
2023/10/11 13:22:52;;;;;;;8.83;5.60;;;18.00;99.90;;;;;;5054852;28;20462;-65
2023/10/11 13:25:24;;;;;;;7.57;4.70;;;18.00;99.90;;;;;;5053000;28;20813;-65
2023/10/11 13:27:56;;;;;;;9.03;4.53;;;18.00;99.90;;;;;;5054151;28;20562;-67
2023/10/11 13:30:23;;;;;;;6.40;4.87;;;18.00;99.90;;;;;;5054617;28;20398;-65
2023/10/11 13:32:57;;;;;;;5.93;5.17;;;18.00;99.90;;;;;;5053576;28;20797;-65
2023/10/11 13:35:23;;;;;;;7.27;4.50;;;18.00;99.90;;;;;;5054082;28;20488;-65
2023/10/11 13:37:49;;;;;;;8.03;4.23;;;18.10;99.90;;;;;;5054055;28;20524;-65
2023/10/11 13:40:25;;;;;;;7.67;5.23;;;18.00;99.90;;;;;;5053400;28;20421;-66
2023/10/11 13:42:51;;;;;;;9.80;5.00;;;18.00;99.90;;;;;;5054662;28;20762;-66
2023/10/11 13:45:17;;;;;;;5.43;4.40;;;18.00;99.90;;;;;;5053969;28;20469;-65
2023/10/11 13:47:44;;;;;;;13.47;5.70;;;18.00;99.90;;;;;;5053203;28;21008;-66
2023/10/11 13:50:20;;;;;;;5.83;4.63;;;18.00;99.90;;;;;;5054498;28;20437;-69
2023/10/11 13:52:51;;;;;;;7.07;4.53;;;17.90;99.90;;;;;;5054387;28;20397;-66
2023/10/11 13:55:23;;;;;;;5.57;4.37;;;17.80;99.90;;;;;;5053744;28;20397;-65
2023/10/11 13:57:52;;;;;;;10.30;4.73;;;17.80;99.90;;;;;;5053806;28;20809;-65